sensor_id;sensor_type;location;lat;lon;timestamp;P1;durP1;ratioP1;P2;durP2;ratioP2
42084;SDS011;27746;52.228;20.890;2023-08-31T00:00:43;8.65;;;6.32;;
42084;SDS011;27746;52.228;20.890;2023-08-31T00:03:12;10.40;;;7.30;;
42084;SDS011;27746;52.228;20.890;2023-08-31T00:05:40;10.35;;;6.10;;
42084;SDS011;27746;52.228;20.890;2023-08-31T00:08:09;9.38;;;5.60;;
42084;SDS011;27746;52.228;20.890;2023-08-31T00:10:37;11.85;;;6.30;;
42084;SDS011;27746;52.228;20.890;2023-08-31T00:13:05;8.93;;;5.82;;
42084;SDS011;27746;52.228;20.890;2023-08-31T00:15:32;9.30;;;6.30;;
42084;SDS011;27746;52.228;20.890;2023-08-31T00:18:00;9.02;;;5.90;;
42084;SDS011;27746;52.228;20.890;2023-08-31T00:20:28;9.82;;;6.25;;
42084;SDS011;27746;52.228;20.890;2023-08-31T00:22:56;9.15;;;6.57;;
42084;SDS011;27746;52.228;20.890;2023-08-31T00:25:25;9.68;;;6.18;;
42084;SDS011;27746;52.228;20.890;2023-08-31T00:27:54;10.85;;;6.25;;
42084;SDS011;27746;52.228;20.890;2023-08-31T00:30:22;8.45;;;5.57;;
42084;SDS011;27746;52.228;20.890;2023-08-31T00:32:53;11.30;;;6.82;;
42084;SDS011;27746;52.228;20.890;2023-08-31T00:35:20;8.82;;;6.55;;
42084;SDS011;27746;52.228;20.890;2023-08-31T00:37:49;10.00;;;6.22;;
42084;SDS011;27746;52.228;20.890;2023-08-31T00:40:16;9.23;;;5.90;;
42084;SDS011;27746;52.228;20.890;2023-08-31T00:42:45;11.30;;;6.32;;
42084;SDS011;27746;52.228;20.890;2023-08-31T00:45:12;9.02;;;6.53;;
42084;SDS011;27746;52.228;20.890;2023-08-31T00:47:40;9.40;;;6.10;;
42084;SDS011;27746;52.228;20.890;2023-08-31T00:50:08;10.95;;;6.55;;
42084;SDS011;27746;52.228;20.890;2023-08-31T00:52:36;11.00;;;5.88;;
42084;SDS011;27746;52.228;20.890;2023-08-31T00:55:03;11.45;;;6.25;;
42084;SDS011;27746;52.228;20.890;2023-08-31T00:57:31;9.68;;;5.60;;
42084;SDS011;27746;52.228;20.890;2023-08-31T01:00:00;8.35;;;5.13;;
42084;SDS011;27746;52.228;20.890;2023-08-31T01:02:29;12.43;;;6.15;;
42084;SDS011;27746;52.228;20.890;2023-08-31T01:04:58;8.48;;;5.78;;
42084;SDS011;27746;52.228;20.890;2023-08-31T01:07:30;8.07;;;5.70;;
42084;SDS011;27746;52.228;20.890;2023-08-31T01:10:02;9.30;;;5.82;;
42084;SDS011;27746;52.228;20.890;2023-08-31T01:12:33;7.80;;;5.13;;
42084;SDS011;27746;52.228;20.890;2023-08-31T01:15:04;9.25;;;5.22;;
42084;SDS011;27746;52.228;20.890;2023-08-31T01:17:32;10.98;;;6.10;;
42084;SDS011;27746;52.228;20.890;2023-08-31T01:20:00;7.25;;;5.28;;
42084;SDS011;27746;52.228;20.890;2023-08-31T01:22:31;9.27;;;5.30;;
42084;SDS011;27746;52.228;20.890;2023-08-31T01:25:01;9.05;;;5.93;;
42084;SDS011;27746;52.228;20.890;2023-08-31T01:27:30;9.48;;;6.10;;
42084;SDS011;27746;52.228;20.890;2023-08-31T01:29:58;7.28;;;5.47;;
42084;SDS011;27746;52.228;20.890;2023-08-31T01:32:25;8.13;;;5.50;;
42084;SDS011;27746;52.228;20.890;2023-08-31T01:34:52;7.60;;;5.65;;
42084;SDS011;27746;52.228;20.890;2023-08-31T01:37:25;8.77;;;5.45;;
42084;SDS011;27746;52.228;20.890;2023-08-31T01:39:55;7.57;;;5.43;;
42084;SDS011;27746;52.228;20.890;2023-08-31T01:42:26;10.98;;;6.10;;
42084;SDS011;27746;52.228;20.890;2023-08-31T01:44:54;8.32;;;5.82;;
42084;SDS011;27746;52.228;20.890;2023-08-31T01:47:22;8.45;;;5.82;;
42084;SDS011;27746;52.228;20.890;2023-08-31T01:49:50;7.90;;;5.95;;
42084;SDS011;27746;52.228;20.890;2023-08-31T01:52:18;8.27;;;5.82;;
42084;SDS011;27746;52.228;20.890;2023-08-31T01:54:45;7.63;;;5.55;;
42084;SDS011;27746;52.228;20.890;2023-08-31T01:57:12;8.82;;;5.88;;
42084;SDS011;27746;52.228;20.890;2023-08-31T01:59:40;9.00;;;5.50;;
42084;SDS011;27746;52.228;20.890;2023-08-31T02:02:08;11.38;;;6.75;;
42084;SDS011;27746;52.228;20.890;2023-08-31T02:04:35;9.52;;;6.35;;
42084;SDS011;27746;52.228;20.890;2023-08-31T02:07:02;7.15;;;5.20;;
42084;SDS011;27746;52.228;20.890;2023-08-31T02:09:29;8.38;;;5.40;;
42084;SDS011;27746;52.228;20.890;2023-08-31T02:11:56;10.10;;;6.88;;
42084;SDS011;27746;52.228;20.890;2023-08-31T02:14:24;11.82;;;6.57;;
42084;SDS011;27746;52.228;20.890;2023-08-31T02:16:52;9.68;;;6.20;;
42084;SDS011;27746;52.228;20.890;2023-08-31T02:19:20;11.07;;;5.85;;
42084;SDS011;27746;52.228;20.890;2023-08-31T02:21:47;8.43;;;6.00;;
42084;SDS011;27746;52.228;20.890;2023-08-31T02:24:14;10.05;;;6.75;;
42084;SDS011;27746;52.228;20.890;2023-08-31T02:26:41;9.27;;;6.45;;
42084;SDS011;27746;52.228;20.890;2023-08-31T02:29:08;9.63;;;6.65;;
42084;SDS011;27746;52.228;20.890;2023-08-31T02:31:35;11.20;;;6.90;;
42084;SDS011;27746;52.228;20.890;2023-08-31T02:34:05;8.00;;;5.88;;
42084;SDS011;27746;52.228;20.890;2023-08-31T02:36:32;9.02;;;6.43;;
42084;SDS011;27746;52.228;20.890;2023-08-31T02:38:59;8.95;;;6.05;;
42084;SDS011;27746;52.228;20.890;2023-08-31T02:41:26;9.55;;;5.90;;
42084;SDS011;27746;52.228;20.890;2023-08-31T02:43:54;9.23;;;5.75;;
42084;SDS011;27746;52.228;20.890;2023-08-31T02:46:21;10.45;;;6.15;;
42084;SDS011;27746;52.228;20.890;2023-08-31T02:48:48;8.65;;;5.80;;
42084;SDS011;27746;52.228;20.890;2023-08-31T02:51:17;11.23;;;6.80;;
42084;SDS011;27746;52.228;20.890;2023-08-31T02:53:44;10.23;;;6.72;;
42084;SDS011;27746;52.228;20.890;2023-08-31T02:56:11;11.10;;;6.28;;
42084;SDS011;27746;52.228;20.890;2023-08-31T02:58:39;11.07;;;6.40;;
42084;SDS011;27746;52.228;20.890;2023-08-31T03:01:06;9.15;;;5.72;;
42084;SDS011;27746;52.228;20.890;2023-08-31T03:03:36;9.57;;;5.90;;
42084;SDS011;27746;52.228;20.890;2023-08-31T03:06:03;7.05;;;5.40;;
42084;SDS011;27746;52.228;20.890;2023-08-31T03:08:31;8.35;;;5.75;;
42084;SDS011;27746;52.228;20.890;2023-08-31T03:10:58;7.35;;;5.45;;
42084;SDS011;27746;52.228;20.890;2023-08-31T03:13:26;7.70;;;5.53;;
42084;SDS011;27746;52.228;20.890;2023-08-31T03:15:53;8.60;;;6.13;;
42084;SDS011;27746;52.228;20.890;2023-08-31T03:18:21;9.18;;;6.40;;
42084;SDS011;27746;52.228;20.890;2023-08-31T03:20:48;9.18;;;6.22;;
42084;SDS011;27746;52.228;20.890;2023-08-31T03:23:15;9.60;;;6.85;;
42084;SDS011;27746;52.228;20.890;2023-08-31T03:25:44;7.72;;;5.97;;
42084;SDS011;27746;52.228;20.890;2023-08-31T03:28:11;8.88;;;6.10;;
42084;SDS011;27746;52.228;20.890;2023-08-31T03:30:39;8.15;;;5.90;;
42084;SDS011;27746;52.228;20.890;2023-08-31T03:33:06;7.82;;;5.43;;
42084;SDS011;27746;52.228;20.890;2023-08-31T03:35:33;8.27;;;5.38;;
42084;SDS011;27746;52.228;20.890;2023-08-31T03:38:00;8.15;;;5.13;;
42084;SDS011;27746;52.228;20.890;2023-08-31T03:40:28;7.13;;;5.13;;
42084;SDS011;27746;52.228;20.890;2023-08-31T03:42:56;7.38;;;4.95;;
42084;SDS011;27746;52.228;20.890;2023-08-31T03:45:23;9.07;;;5.35;;
42084;SDS011;27746;52.228;20.890;2023-08-31T03:47:51;8.82;;;5.53;;
42084;SDS011;27746;52.228;20.890;2023-08-31T03:50:18;8.50;;;5.32;;
42084;SDS011;27746;52.228;20.890;2023-08-31T03:52:45;5.68;;;4.13;;
42084;SDS011;27746;52.228;20.890;2023-08-31T03:55:12;7.57;;;5.30;;
42084;SDS011;27746;52.228;20.890;2023-08-31T03:57:39;6.75;;;4.72;;
42084;SDS011;27746;52.228;20.890;2023-08-31T04:00:09;7.57;;;5.00;;
42084;SDS011;27746;52.228;20.890;2023-08-31T04:02:37;6.97;;;4.80;;
42084;SDS011;27746;52.228;20.890;2023-08-31T04:05:05;8.15;;;5.25;;
42084;SDS011;27746;52.228;20.890;2023-08-31T04:07:34;7.30;;;5.22;;
42084;SDS011;27746;52.228;20.890;2023-08-31T04:10:01;6.82;;;4.22;;
42084;SDS011;27746;52.228;20.890;2023-08-31T04:12:28;8.27;;;4.30;;
42084;SDS011;27746;52.228;20.890;2023-08-31T04:14:55;8.65;;;5.05;;
42084;SDS011;27746;52.228;20.890;2023-08-31T04:17:24;7.35;;;4.72;;
42084;SDS011;27746;52.228;20.890;2023-08-31T04:19:51;9.77;;;4.82;;
42084;SDS011;27746;52.228;20.890;2023-08-31T04:22:18;6.50;;;4.35;;
42084;SDS011;27746;52.228;20.890;2023-08-31T04:24:46;6.88;;;4.38;;
42084;SDS011;27746;52.228;20.890;2023-08-31T04:27:13;6.53;;;4.60;;
42084;SDS011;27746;52.228;20.890;2023-08-31T04:29:40;7.80;;;4.97;;
42084;SDS011;27746;52.228;20.890;2023-08-31T04:32:07;6.82;;;4.53;;
42084;SDS011;27746;52.228;20.890;2023-08-31T04:34:36;5.68;;;4.57;;
42084;SDS011;27746;52.228;20.890;2023-08-31T04:37:03;8.38;;;4.95;;
42084;SDS011;27746;52.228;20.890;2023-08-31T04:39:30;9.35;;;5.28;;
42084;SDS011;27746;52.228;20.890;2023-08-31T04:41:57;7.47;;;4.90;;
42084;SDS011;27746;52.228;20.890;2023-08-31T04:44:27;6.82;;;4.70;;
42084;SDS011;27746;52.228;20.890;2023-08-31T04:46:54;7.82;;;4.55;;
42084;SDS011;27746;52.228;20.890;2023-08-31T04:49:21;5.57;;;3.92;;
42084;SDS011;27746;52.228;20.890;2023-08-31T04:51:50;6.15;;;3.97;;
42084;SDS011;27746;52.228;20.890;2023-08-31T04:54:17;7.07;;;3.72;;
42084;SDS011;27746;52.228;20.890;2023-08-31T04:56:44;7.70;;;4.40;;
42084;SDS011;27746;52.228;20.890;2023-08-31T04:59:11;7.50;;;4.13;;
42084;SDS011;27746;52.228;20.890;2023-08-31T05:01:39;5.70;;;3.25;;
42084;SDS011;27746;52.228;20.890;2023-08-31T05:04:06;7.15;;;3.55;;
42084;SDS011;27746;52.228;20.890;2023-08-31T05:06:33;6.93;;;4.07;;
42084;SDS011;27746;52.228;20.890;2023-08-31T05:09:01;5.85;;;3.80;;
42084;SDS011;27746;52.228;20.890;2023-08-31T05:11:30;5.85;;;3.63;;
42084;SDS011;27746;52.228;20.890;2023-08-31T05:13:58;6.43;;;3.58;;
42084;SDS011;27746;52.228;20.890;2023-08-31T05:16:25;6.25;;;3.50;;
42084;SDS011;27746;52.228;20.890;2023-08-31T05:18:52;5.00;;;3.55;;
42084;SDS011;27746;52.228;20.890;2023-08-31T05:21:19;6.28;;;3.00;;
42084;SDS011;27746;52.228;20.890;2023-08-31T05:23:46;4.88;;;2.85;;
42084;SDS011;27746;52.228;20.890;2023-08-31T05:26:15;4.68;;;3.08;;
42084;SDS011;27746;52.228;20.890;2023-08-31T05:28:42;8.35;;;2.97;;
42084;SDS011;27746;52.228;20.890;2023-08-31T05:31:09;6.75;;;2.70;;
42084;SDS011;27746;52.228;20.890;2023-08-31T05:33:36;8.52;;;2.40;;
42084;SDS011;27746;52.228;20.890;2023-08-31T05:36:03;5.13;;;2.53;;
42084;SDS011;27746;52.228;20.890;2023-08-31T05:38:31;4.50;;;2.20;;
42084;SDS011;27746;52.228;20.890;2023-08-31T05:41:05;4.47;;;2.15;;
42084;SDS011;27746;52.228;20.890;2023-08-31T05:43:34;4.05;;;1.63;;
42084;SDS011;27746;52.228;20.890;2023-08-31T05:46:01;3.83;;;1.80;;
42084;SDS011;27746;52.228;20.890;2023-08-31T05:48:29;3.33;;;1.50;;
42084;SDS011;27746;52.228;20.890;2023-08-31T05:50:57;3.72;;;2.03;;
42084;SDS011;27746;52.228;20.890;2023-08-31T05:53:24;3.88;;;1.77;;
42084;SDS011;27746;52.228;20.890;2023-08-31T05:55:54;3.65;;;1.63;;
42084;SDS011;27746;52.228;20.890;2023-08-31T05:58:28;3.55;;;1.52;;
42084;SDS011;27746;52.228;20.890;2023-08-31T06:00:56;4.97;;;2.72;;
42084;SDS011;27746;52.228;20.890;2023-08-31T06:03:24;3.15;;;1.40;;
42084;SDS011;27746;52.228;20.890;2023-08-31T06:05:51;4.32;;;1.92;;
42084;SDS011;27746;52.228;20.890;2023-08-31T06:08:19;4.45;;;1.67;;
42084;SDS011;27746;52.228;20.890;2023-08-31T06:10:46;4.55;;;1.30;;
42084;SDS011;27746;52.228;20.890;2023-08-31T06:13:13;5.13;;;1.50;;
42084;SDS011;27746;52.228;20.890;2023-08-31T06:15:40;5.13;;;1.80;;
42084;SDS011;27746;52.228;20.890;2023-08-31T06:18:09;3.40;;;1.58;;
42084;SDS011;27746;52.228;20.890;2023-08-31T06:20:36;4.93;;;1.52;;
42084;SDS011;27746;52.228;20.890;2023-08-31T06:23:03;3.22;;;1.27;;
42084;SDS011;27746;52.228;20.890;2023-08-31T06:25:30;4.97;;;1.67;;
42084;SDS011;27746;52.228;20.890;2023-08-31T06:27:57;5.10;;;1.70;;
42084;SDS011;27746;52.228;20.890;2023-08-31T06:30:25;6.20;;;2.00;;
42084;SDS011;27746;52.228;20.890;2023-08-31T06:32:52;5.53;;;1.50;;
42084;SDS011;27746;52.228;20.890;2023-08-31T06:35:20;6.88;;;1.85;;
42084;SDS011;27746;52.228;20.890;2023-08-31T06:37:49;2.80;;;1.45;;
42084;SDS011;27746;52.228;20.890;2023-08-31T06:40:16;3.67;;;1.63;;
42084;SDS011;27746;52.228;20.890;2023-08-31T06:42:43;4.78;;;1.90;;
42084;SDS011;27746;52.228;20.890;2023-08-31T06:45:10;6.32;;;2.20;;
42084;SDS011;27746;52.228;20.890;2023-08-31T06:47:37;5.10;;;2.28;;
42084;SDS011;27746;52.228;20.890;2023-08-31T06:50:05;6.95;;;2.22;;
42084;SDS011;27746;52.228;20.890;2023-08-31T06:52:34;4.07;;;1.70;;
42084;SDS011;27746;52.228;20.890;2023-08-31T06:55:01;9.88;;;2.35;;
42084;SDS011;27746;52.228;20.890;2023-08-31T06:57:31;5.22;;;3.05;;
42084;SDS011;27746;52.228;20.890;2023-08-31T06:59:58;6.38;;;2.15;;
42084;SDS011;27746;52.228;20.890;2023-08-31T07:02:25;4.78;;;2.20;;
42084;SDS011;27746;52.228;20.890;2023-08-31T07:04:53;7.45;;;2.85;;
42084;SDS011;27746;52.228;20.890;2023-08-31T07:07:20;6.25;;;3.72;;
42084;SDS011;27746;52.228;20.890;2023-08-31T07:09:48;6.35;;;2.58;;
42084;SDS011;27746;52.228;20.890;2023-08-31T07:12:16;5.03;;;2.83;;
42084;SDS011;27746;52.228;20.890;2023-08-31T07:14:43;5.60;;;2.88;;
42084;SDS011;27746;52.228;20.890;2023-08-31T07:17:10;4.40;;;2.30;;
42084;SDS011;27746;52.228;20.890;2023-08-31T07:19:37;4.63;;;1.80;;
42084;SDS011;27746;52.228;20.890;2023-08-31T07:22:04;8.65;;;3.80;;
42084;SDS011;27746;52.228;20.890;2023-08-31T07:24:32;8.70;;;4.13;;
42084;SDS011;27746;52.228;20.890;2023-08-31T07:27:01;5.20;;;2.72;;
42084;SDS011;27746;52.228;20.890;2023-08-31T07:29:29;3.72;;;2.00;;
42084;SDS011;27746;52.228;20.890;2023-08-31T07:31:56;4.75;;;1.88;;
42084;SDS011;27746;52.228;20.890;2023-08-31T07:34:23;4.85;;;2.08;;
42084;SDS011;27746;52.228;20.890;2023-08-31T07:36:51;5.15;;;2.17;;
42084;SDS011;27746;52.228;20.890;2023-08-31T07:39:19;5.00;;;1.90;;
42084;SDS011;27746;52.228;20.890;2023-08-31T07:41:46;4.20;;;1.85;;
42084;SDS011;27746;52.228;20.890;2023-08-31T07:44:14;2.95;;;1.58;;
42084;SDS011;27746;52.228;20.890;2023-08-31T07:46:41;7.55;;;1.42;;
42084;SDS011;27746;52.228;20.890;2023-08-31T07:49:09;4.75;;;1.70;;
42084;SDS011;27746;52.228;20.890;2023-08-31T07:51:36;4.65;;;1.42;;
42084;SDS011;27746;52.228;20.890;2023-08-31T07:54:03;4.90;;;1.50;;
42084;SDS011;27746;52.228;20.890;2023-08-31T07:56:30;4.93;;;1.40;;
42084;SDS011;27746;52.228;20.890;2023-08-31T07:58:57;3.60;;;1.60;;
42084;SDS011;27746;52.228;20.890;2023-08-31T08:01:26;3.85;;;2.22;;
42084;SDS011;27746;52.228;20.890;2023-08-31T08:03:53;7.57;;;1.75;;
42084;SDS011;27746;52.228;20.890;2023-08-31T08:06:20;4.78;;;1.65;;
42084;SDS011;27746;52.228;20.890;2023-08-31T08:08:47;3.15;;;1.20;;
42084;SDS011;27746;52.228;20.890;2023-08-31T08:11:14;4.13;;;1.50;;
42084;SDS011;27746;52.228;20.890;2023-08-31T08:13:42;2.63;;;1.27;;
42084;SDS011;27746;52.228;20.890;2023-08-31T08:16:09;3.95;;;1.20;;
42084;SDS011;27746;52.228;20.890;2023-08-31T08:18:37;3.38;;;1.42;;
42084;SDS011;27746;52.228;20.890;2023-08-31T08:21:04;4.28;;;1.60;;
42084;SDS011;27746;52.228;20.890;2023-08-31T08:23:32;4.35;;;1.58;;
42084;SDS011;27746;52.228;20.890;2023-08-31T08:25:59;2.55;;;1.10;;
42084;SDS011;27746;52.228;20.890;2023-08-31T08:28:26;6.15;;;1.40;;
42084;SDS011;27746;52.228;20.890;2023-08-31T08:30:53;3.08;;;1.25;;
42084;SDS011;27746;52.228;20.890;2023-08-31T08:33:20;7.07;;;2.25;;
42084;SDS011;27746;52.228;20.890;2023-08-31T08:35:49;4.40;;;1.23;;
42084;SDS011;27746;52.228;20.890;2023-08-31T08:38:16;4.55;;;1.60;;
42084;SDS011;27746;52.228;20.890;2023-08-31T08:40:43;3.75;;;1.70;;
42084;SDS011;27746;52.228;20.890;2023-08-31T08:43:10;6.28;;;2.00;;
42084;SDS011;27746;52.228;20.890;2023-08-31T08:45:38;4.60;;;2.15;;
42084;SDS011;27746;52.228;20.890;2023-08-31T08:48:07;6.85;;;2.20;;
42084;SDS011;27746;52.228;20.890;2023-08-31T08:50:34;3.25;;;1.92;;
42084;SDS011;27746;52.228;20.890;2023-08-31T08:53:03;5.28;;;2.25;;
42084;SDS011;27746;52.228;20.890;2023-08-31T08:55:31;6.07;;;4.30;;
42084;SDS011;27746;52.228;20.890;2023-08-31T08:57:58;4.97;;;2.60;;
42084;SDS011;27746;52.228;20.890;2023-08-31T09:00:25;3.53;;;2.20;;
42084;SDS011;27746;52.228;20.890;2023-08-31T09:02:53;5.70;;;2.63;;
42084;SDS011;27746;52.228;20.890;2023-08-31T09:05:20;3.20;;;2.13;;
42084;SDS011;27746;52.228;20.890;2023-08-31T09:08:00;5.55;;;2.13;;
42084;SDS011;27746;52.228;20.890;2023-08-31T09:10:33;6.47;;;2.10;;
42084;SDS011;27746;52.228;20.890;2023-08-31T09:13:04;6.22;;;2.55;;
42084;SDS011;27746;52.228;20.890;2023-08-31T09:15:41;4.72;;;1.73;;
42084;SDS011;27746;52.228;20.890;2023-08-31T09:18:13;5.07;;;1.85;;
42084;SDS011;27746;52.228;20.890;2023-08-31T09:20:43;4.38;;;1.67;;
42084;SDS011;27746;52.228;20.890;2023-08-31T09:23:11;4.45;;;1.63;;
42084;SDS011;27746;52.228;20.890;2023-08-31T09:25:43;3.47;;;1.45;;
42084;SDS011;27746;52.228;20.890;2023-08-31T09:28:11;3.63;;;1.70;;
42084;SDS011;27746;52.228;20.890;2023-08-31T09:30:38;4.38;;;1.70;;
42084;SDS011;27746;52.228;20.890;2023-08-31T09:33:06;4.75;;;1.67;;
42084;SDS011;27746;52.228;20.890;2023-08-31T09:35:38;3.42;;;1.80;;
42084;SDS011;27746;52.228;20.890;2023-08-31T09:38:07;4.88;;;1.73;;
42084;SDS011;27746;52.228;20.890;2023-08-31T09:40:34;6.63;;;1.80;;
42084;SDS011;27746;52.228;20.890;2023-08-31T09:43:03;7.15;;;1.80;;
42084;SDS011;27746;52.228;20.890;2023-08-31T09:45:31;3.40;;;1.38;;
42084;SDS011;27746;52.228;20.890;2023-08-31T09:47:59;6.38;;;1.85;;
42084;SDS011;27746;52.228;20.890;2023-08-31T09:50:26;6.15;;;2.67;;
42084;SDS011;27746;52.228;20.890;2023-08-31T09:52:55;10.38;;;2.47;;
42084;SDS011;27746;52.228;20.890;2023-08-31T09:55:27;3.83;;;1.70;;
42084;SDS011;27746;52.228;20.890;2023-08-31T09:57:55;5.22;;;1.58;;
42084;SDS011;27746;52.228;20.890;2023-08-31T10:00:24;4.13;;;1.55;;
42084;SDS011;27746;52.228;20.890;2023-08-31T10:02:52;5.90;;;1.70;;
42084;SDS011;27746;52.228;20.890;2023-08-31T10:05:20;4.18;;;1.90;;
42084;SDS011;27746;52.228;20.890;2023-08-31T10:07:48;5.07;;;1.88;;
42084;SDS011;27746;52.228;20.890;2023-08-31T10:10:16;5.32;;;1.67;;
42084;SDS011;27746;52.228;20.890;2023-08-31T10:12:45;3.17;;;1.65;;
42084;SDS011;27746;52.228;20.890;2023-08-31T10:15:12;3.22;;;1.40;;
42084;SDS011;27746;52.228;20.890;2023-08-31T10:17:41;5.05;;;1.85;;
42084;SDS011;27746;52.228;20.890;2023-08-31T10:20:10;3.92;;;1.58;;
42084;SDS011;27746;52.228;20.890;2023-08-31T10:22:38;3.65;;;1.75;;
42084;SDS011;27746;52.228;20.890;2023-08-31T10:25:06;4.72;;;1.70;;
42084;SDS011;27746;52.228;20.890;2023-08-31T10:27:36;7.00;;;1.90;;
42084;SDS011;27746;52.228;20.890;2023-08-31T10:30:14;8.55;;;2.78;;
42084;SDS011;27746;52.228;20.890;2023-08-31T10:32:42;5.13;;;2.20;;
42084;SDS011;27746;52.228;20.890;2023-08-31T10:35:09;4.28;;;1.80;;
42084;SDS011;27746;52.228;20.890;2023-08-31T10:37:39;4.50;;;2.10;;
42084;SDS011;27746;52.228;20.890;2023-08-31T10:40:06;4.53;;;2.33;;
42084;SDS011;27746;52.228;20.890;2023-08-31T10:42:43;3.97;;;2.78;;
42084;SDS011;27746;52.228;20.890;2023-08-31T10:45:10;5.63;;;2.05;;
42084;SDS011;27746;52.228;20.890;2023-08-31T10:47:37;5.13;;;2.30;;
42084;SDS011;27746;52.228;20.890;2023-08-31T10:52:48;5.75;;;1.88;;
42084;SDS011;27746;52.228;20.890;2023-08-31T10:55:15;5.75;;;2.03;;
42084;SDS011;27746;52.228;20.890;2023-08-31T10:57:43;4.47;;;2.20;;
42084;SDS011;27746;52.228;20.890;2023-08-31T11:00:11;3.30;;;1.88;;
42084;SDS011;27746;52.228;20.890;2023-08-31T11:02:41;6.03;;;2.30;;
42084;SDS011;27746;52.228;20.890;2023-08-31T11:05:09;4.78;;;2.53;;
42084;SDS011;27746;52.228;20.890;2023-08-31T11:07:37;4.53;;;2.28;;
42084;SDS011;27746;52.228;20.890;2023-08-31T11:10:10;4.78;;;2.42;;
42084;SDS011;27746;52.228;20.890;2023-08-31T11:15:05;6.38;;;2.40;;
42084;SDS011;27746;52.228;20.890;2023-08-31T11:17:32;5.05;;;2.40;;
42084;SDS011;27746;52.228;20.890;2023-08-31T11:20:00;4.60;;;2.33;;
42084;SDS011;27746;52.228;20.890;2023-08-31T11:22:30;5.10;;;2.33;;
42084;SDS011;27746;52.228;20.890;2023-08-31T11:24:59;4.45;;;2.20;;
42084;SDS011;27746;52.228;20.890;2023-08-31T11:27:27;4.45;;;2.53;;
42084;SDS011;27746;52.228;20.890;2023-08-31T11:29:54;7.28;;;2.80;;
42084;SDS011;27746;52.228;20.890;2023-08-31T11:32:23;5.95;;;2.28;;
42084;SDS011;27746;52.228;20.890;2023-08-31T11:34:50;4.80;;;2.35;;
42084;SDS011;27746;52.228;20.890;2023-08-31T11:37:18;3.90;;;2.30;;
42084;SDS011;27746;52.228;20.890;2023-08-31T11:39:49;4.18;;;2.35;;
42084;SDS011;27746;52.228;20.890;2023-08-31T11:42:17;4.38;;;2.20;;
42084;SDS011;27746;52.228;20.890;2023-08-31T11:44:46;5.63;;;2.10;;
42084;SDS011;27746;52.228;20.890;2023-08-31T11:47:13;7.18;;;2.90;;
42084;SDS011;27746;52.228;20.890;2023-08-31T11:49:41;11.73;;;3.67;;
42084;SDS011;27746;52.228;20.890;2023-08-31T11:52:09;12.07;;;3.45;;
42084;SDS011;27746;52.228;20.890;2023-08-31T11:54:36;15.90;;;3.88;;
42084;SDS011;27746;52.228;20.890;2023-08-31T11:57:06;17.80;;;4.72;;
42084;SDS011;27746;52.228;20.890;2023-08-31T11:59:34;12.18;;;4.03;;
42084;SDS011;27746;52.228;20.890;2023-08-31T12:02:04;11.82;;;3.17;;
42084;SDS011;27746;52.228;20.890;2023-08-31T12:04:32;4.57;;;2.70;;
42084;SDS011;27746;52.228;20.890;2023-08-31T12:07:02;7.00;;;2.92;;
42084;SDS011;27746;52.228;20.890;2023-08-31T12:09:30;4.78;;;2.35;;
42084;SDS011;27746;52.228;20.890;2023-08-31T12:11:58;9.38;;;2.30;;
42084;SDS011;27746;52.228;20.890;2023-08-31T12:14:25;5.00;;;2.45;;
42084;SDS011;27746;52.228;20.890;2023-08-31T12:16:59;8.13;;;2.60;;
42084;SDS011;27746;52.228;20.890;2023-08-31T12:19:28;5.35;;;2.20;;
42084;SDS011;27746;52.228;20.890;2023-08-31T12:21:58;6.88;;;2.50;;
42084;SDS011;27746;52.228;20.890;2023-08-31T12:24:25;5.20;;;2.40;;
42084;SDS011;27746;52.228;20.890;2023-08-31T12:26:52;6.18;;;2.20;;
42084;SDS011;27746;52.228;20.890;2023-08-31T12:29:20;9.32;;;3.30;;
42084;SDS011;27746;52.228;20.890;2023-08-31T12:31:47;8.27;;;4.15;;
42084;SDS011;27746;52.228;20.890;2023-08-31T12:34:15;8.57;;;3.03;;
42084;SDS011;27746;52.228;20.890;2023-08-31T12:36:43;6.10;;;3.15;;
42084;SDS011;27746;52.228;20.890;2023-08-31T12:39:11;11.30;;;3.33;;
42084;SDS011;27746;52.228;20.890;2023-08-31T12:41:38;13.18;;;4.55;;
42084;SDS011;27746;52.228;20.890;2023-08-31T12:44:06;9.10;;;3.10;;
42084;SDS011;27746;52.228;20.890;2023-08-31T12:46:33;7.65;;;2.80;;
42084;SDS011;27746;52.228;20.890;2023-08-31T12:49:01;5.53;;;2.72;;
42084;SDS011;27746;52.228;20.890;2023-08-31T12:51:28;7.35;;;2.33;;
42084;SDS011;27746;52.228;20.890;2023-08-31T12:53:57;7.25;;;3.65;;
42084;SDS011;27746;52.228;20.890;2023-08-31T12:56:24;8.68;;;4.10;;
42084;SDS011;27746;52.228;20.890;2023-08-31T12:58:52;6.97;;;3.53;;
42084;SDS011;27746;52.228;20.890;2023-08-31T13:01:19;21.50;;;5.97;;
42084;SDS011;27746;52.228;20.890;2023-08-31T13:03:48;5.72;;;3.03;;
42084;SDS011;27746;52.228;20.890;2023-08-31T13:06:15;18.63;;;3.47;;
42084;SDS011;27746;52.228;20.890;2023-08-31T13:08:44;11.35;;;2.58;;
42084;SDS011;27746;52.228;20.890;2023-08-31T13:11:13;5.63;;;2.35;;
42084;SDS011;27746;52.228;20.890;2023-08-31T13:13:40;7.72;;;2.83;;
42084;SDS011;27746;52.228;20.890;2023-08-31T13:16:09;4.80;;;2.63;;
42084;SDS011;27746;52.228;20.890;2023-08-31T13:18:36;5.35;;;2.55;;
42084;SDS011;27746;52.228;20.890;2023-08-31T13:21:03;4.20;;;2.50;;
42084;SDS011;27746;52.228;20.890;2023-08-31T13:23:30;4.70;;;2.58;;
42084;SDS011;27746;52.228;20.890;2023-08-31T13:25:57;5.78;;;2.30;;
42084;SDS011;27746;52.228;20.890;2023-08-31T13:28:26;4.53;;;2.70;;
42084;SDS011;27746;52.228;20.890;2023-08-31T13:30:55;4.05;;;2.20;;
42084;SDS011;27746;52.228;20.890;2023-08-31T13:33:22;4.80;;;2.53;;
42084;SDS011;27746;52.228;20.890;2023-08-31T13:35:50;4.25;;;2.22;;
42084;SDS011;27746;52.228;20.890;2023-08-31T13:38:17;7.82;;;2.92;;
42084;SDS011;27746;52.228;20.890;2023-08-31T13:40:44;7.78;;;3.35;;
42084;SDS011;27746;52.228;20.890;2023-08-31T13:43:12;6.38;;;3.20;;
42084;SDS011;27746;52.228;20.890;2023-08-31T13:45:40;8.90;;;3.25;;
42084;SDS011;27746;52.228;20.890;2023-08-31T13:48:08;7.20;;;2.90;;
42084;SDS011;27746;52.228;20.890;2023-08-31T13:50:35;5.70;;;2.55;;
42084;SDS011;27746;52.228;20.890;2023-08-31T13:53:02;4.55;;;2.45;;
42084;SDS011;27746;52.228;20.890;2023-08-31T13:55:29;7.13;;;2.83;;
42084;SDS011;27746;52.228;20.890;2023-08-31T13:58:02;12.60;;;3.80;;
42084;SDS011;27746;52.228;20.890;2023-08-31T14:00:31;8.40;;;3.63;;
42084;SDS011;27746;52.228;20.890;2023-08-31T14:02:59;10.77;;;4.40;;
42084;SDS011;27746;52.228;20.890;2023-08-31T14:05:28;6.57;;;3.28;;
42084;SDS011;27746;52.228;20.890;2023-08-31T14:07:55;10.65;;;4.20;;
42084;SDS011;27746;52.228;20.890;2023-08-31T14:10:23;7.22;;;4.20;;
42084;SDS011;27746;52.228;20.890;2023-08-31T14:12:50;8.30;;;3.85;;
42084;SDS011;27746;52.228;20.890;2023-08-31T14:15:17;8.20;;;3.70;;
42084;SDS011;27746;52.228;20.890;2023-08-31T14:17:44;6.55;;;3.88;;
42084;SDS011;27746;52.228;20.890;2023-08-31T14:20:13;5.05;;;3.40;;
42084;SDS011;27746;52.228;20.890;2023-08-31T14:22:40;8.02;;;4.25;;
42084;SDS011;27746;52.228;20.890;2023-08-31T14:25:09;7.13;;;4.15;;
42084;SDS011;27746;52.228;20.890;2023-08-31T14:27:37;9.20;;;3.83;;
42084;SDS011;27746;52.228;20.890;2023-08-31T14:30:05;5.63;;;3.60;;
42084;SDS011;27746;52.228;20.890;2023-08-31T14:32:32;8.07;;;4.30;;
42084;SDS011;27746;52.228;20.890;2023-08-31T14:34:59;8.32;;;3.58;;
42084;SDS011;27746;52.228;20.890;2023-08-31T14:37:28;6.93;;;3.65;;
42084;SDS011;27746;52.228;20.890;2023-08-31T14:39:55;6.30;;;3.20;;
42084;SDS011;27746;52.228;20.890;2023-08-31T14:42:23;6.65;;;3.67;;